Time;durP1;ratioP1;P1;durP2;ratioP2;P2;SDS_P1;SDS_P2;PMS_P1;PMS_P2;Temp;Humidity;BMP_temperature;BMP_pressure;BME280_temperature;BME280_humidity;BME280_pressure;Samples;Min_cycle;Max_cycle;Signal;HPM_P1;HPM_P2
2022/06/25 00:01:16;;;;;;;3.50;3.30;;;;;;;;;;5033339;28;20032;-78
2022/06/25 00:03:42;;;;;;;3.92;3.63;;;;;;;;;;5034209;28;20063;-76
2022/06/25 00:06:08;;;;;;;4.05;3.75;;;;;;;;;;5016577;28;20040;-78
2022/06/25 00:11:01;;;;;;;4.13;3.60;;;;;;;;;;5046263;23;20077;-78
2022/06/25 00:13:27;;;;;;;3.65;3.42;;;;;;;;;;5033943;28;20060;-77
2022/06/25 00:15:54;;;;;;;3.88;3.58;;;;;;;;;;5016345;28;20060;-78
2022/06/25 00:18:19;;;;;;;3.60;3.30;;;;;;;;;;5033951;28;20033;-78
2022/06/25 00:20:45;;;;;;;4.30;3.90;;;;;;;;;;5016341;28;20027;-77
2022/06/25 00:23:11;;;;;;;4.20;3.80;;;;;;;;;;5033970;28;20057;-76
2022/06/25 00:25:36;;;;;;;3.75;3.38;;;;;;;;;;5033806;28;20057;-77
2022/06/25 00:28:02;;;;;;;3.90;3.45;;;;;;;;;;5034303;28;20400;-78
2022/06/25 00:30:28;;;;;;;4.15;3.88;;;;;;;;;;5033986;28;20444;-76
2022/06/25 00:32:54;;;;;;;3.45;3.15;;;;;;;;;;5034379;28;20026;-76
2022/06/25 00:35:19;;;;;;;3.97;3.60;;;;;;;;;;5034090;28;20422;-76
2022/06/25 00:37:45;;;;;;;3.75;3.45;;;;;;;;;;5015986;28;20462;-76
2022/06/25 00:40:11;;;;;;;3.53;3.33;;;;;;;;;;5033796;28;20026;-77
2022/06/25 00:42:40;;;;;;;3.63;3.35;;;;;;;;;;5015979;28;20032;-78
2022/06/25 00:45:06;;;;;;;5.40;3.47;;;;;;;;;;5033764;28;20014;-78
2022/06/25 00:47:31;;;;;;;3.53;3.28;;;;;;;;;;5033773;28;20467;-77
2022/06/25 00:49:56;;;;;;;4.10;3.78;;;;;;;;;;5032437;28;20017;-78
2022/06/25 00:52:24;;;;;;;3.75;3.40;;;;;;;;;;5034104;28;20029;-78
2022/06/25 00:54:50;;;;;;;4.40;3.28;;;;;;;;;;5034039;28;20071;-78
2022/06/25 00:57:20;;;;;;;5.20;3.47;;;;;;;;;;5035793;28;20033;-78
2022/06/25 00:59:48;;;;;;;3.30;2.95;;;;;;;;;;5037828;28;20538;-77
2022/06/25 01:02:13;;;;;;;4.43;3.42;;;;;;;;;;5019874;28;20033;-79
2022/06/25 01:04:39;;;;;;;4.60;3.33;;;;;;;;;;5037599;28;20032;-78
2022/06/25 01:07:06;;;;;;;3.53;3.22;;;;;;;;;;5036506;28;20021;-78
2022/06/25 01:09:32;;;;;;;3.60;3.30;;;;;;;;;;5019821;28;20418;-79
2022/06/25 01:11:57;;;;;;;3.60;3.30;;;;;;;;;;5037476;28;20075;-79
2022/06/25 01:14:24;;;;;;;4.38;3.50;;;;;;;;;;5037730;28;20467;-77
2022/06/25 01:16:49;;;;;;;4.65;3.47;;;;;;;;;;5036327;28;20164;-79
2022/06/25 01:19:15;;;;;;;3.90;3.42;;;;;;;;;;5019616;28;20037;-78
2022/06/25 01:21:42;;;;;;;4.43;3.25;;;;;;;;;;5037548;28;20029;-79
2022/06/25 01:24:08;;;;;;;4.47;3.38;;;;;;;;;;5019484;28;20041;-76
2022/06/25 01:26:34;;;;;;;4.75;3.33;;;;;;;;;;5003179;28;20114;-77
2022/06/25 01:29:00;;;;;;;5.55;3.40;;;;;;;;;;5037141;28;20017;-78
2022/06/25 01:31:27;;;;;;;4.07;3.67;;;;;;;;;;5037408;28;20430;-78
2022/06/25 01:33:53;;;;;;;3.45;3.15;;;;;;;;;;5037090;28;20132;-78
2022/06/25 01:36:19;;;;;;;3.25;2.95;;;;;;;;;;5037120;28;20079;-78
2022/06/25 01:38:44;;;;;;;4.95;3.20;;;;;;;;;;5019206;28;20387;-77
2022/06/25 01:41:10;;;;;;;3.42;3.20;;;;;;;;;;5019169;28;20530;-77
2022/06/25 01:43:36;;;;;;;3.67;3.38;;;;;;;;;;5019187;28;20028;-76
2022/06/25 01:46:01;;;;;;;3.85;3.40;;;;;;;;;;5035997;28;20029;-76
2022/06/25 01:48:27;;;;;;;3.95;3.65;;;;;;;;;;5019093;28;20010;-78
2022/06/25 01:50:52;;;;;;;7.25;3.35;;;;;;;;;;5036766;28;20471;-78
2022/06/25 01:53:18;;;;;;;4.65;3.45;;;;;;;;;;5018986;28;20018;-76
2022/06/25 01:55:43;;;;;;;3.67;3.38;;;;;;;;;;5018872;28;20168;-78
2022/06/25 01:58:09;;;;;;;4.97;3.53;;;;;;;;;;5019226;28;20443;-75
2022/06/25 02:00:34;;;;;;;3.67;3.38;;;;;;;;;;5018851;28;20495;-77
2022/06/25 02:03:06;;;;;;;3.72;3.42;;;;;;;;;;5018834;28;20391;-77
2022/06/25 02:08:17;;;;;;;3.38;3.08;;;;;;;;;;5018245;28;20037;-78
2022/06/25 02:10:45;;;;;;;3.42;3.22;;;;;;;;;;5015525;28;20081;-78
2022/06/25 02:13:10;;;;;;;3.70;3.28;;;;;;;;;;5016837;28;20117;-78
2022/06/25 02:15:35;;;;;;;3.97;3.60;;;;;;;;;;5015335;28;20033;-78
2022/06/25 02:18:02;;;;;;;3.80;3.50;;;;;;;;;;5015258;28;20037;-78
2022/06/25 02:20:27;;;;;;;4.93;3.38;;;;;;;;;;5015222;28;20380;-78
2022/06/25 02:22:53;;;;;;;3.78;3.47;;;;;;;;;;5016419;28;20544;-72
2022/06/25 02:25:21;;;;;;;3.75;3.55;;;;;;;;;;5043860;23;20487;-72
2022/06/25 02:27:47;;;;;;;4.43;3.17;;;;;;;;;;5036186;28;20265;-72
2022/06/25 02:30:13;;;;;;;3.47;3.17;;;;;;;;;;5018329;28;20514;-72
2022/06/25 02:32:38;;;;;;;3.78;3.42;;;;;;;;;;5018768;28;20061;-72
2022/06/25 02:35:04;;;;;;;4.25;3.50;;;;;;;;;;5018242;28;20052;-71
2022/06/25 02:37:30;;;;;;;3.45;3.20;;;;;;;;;;5018153;28;20456;-72
2022/06/25 02:39:56;;;;;;;3.53;3.20;;;;;;;;;;5018093;28;20104;-72
2022/06/25 02:42:22;;;;;;;3.78;3.30;;;;;;;;;;5018139;28;20021;-72
2022/06/25 02:44:48;;;;;;;3.85;3.55;;;;;;;;;;5018015;28;20017;-72
2022/06/25 02:47:13;;;;;;;3.75;3.30;;;;;;;;;;5017841;28;20029;-72
2022/06/25 02:50:00;;;;;;;3.70;3.40;;;;;;;;;;5018087;28;20044;-71
2022/06/25 02:52:26;;;;;;;3.65;3.30;;;;;;;;;;5018014;28;20108;-73
2022/06/25 02:54:51;;;;;;;3.55;3.25;;;;;;;;;;5017931;28;20025;-78
2022/06/25 03:00:04;;;;;;;3.50;2.92;;;;;;;;;;5017730;28;20037;-78
2022/06/25 03:02:30;;;;;;;4.65;3.25;;;;;;;;;;5017735;28;20029;-77
2022/06/25 03:04:58;;;;;;;2.95;2.85;;;;;;;;;;5017701;28;20025;-77
2022/06/25 03:07:23;;;;;;;3.50;3.20;;;;;;;;;;5017575;28;20486;-78
2022/06/25 03:09:51;;;;;;;4.63;3.47;;;;;;;;;;5017581;28;20025;-78
2022/06/25 03:12:17;;;;;;;3.47;3.17;;;;;;;;;;5017505;28;20108;-79
2022/06/25 03:14:50;;;;;;;3.90;3.60;;;;;;;;;;5017407;28;20028;-77
2022/06/25 03:17:18;;;;;;;6.20;3.50;;;;;;;;;;5017976;28;20036;-79
2022/06/25 03:20:03;;;;;;;3.38;3.17;;;;;;;;;;5033631;28;20025;-77
2022/06/25 03:22:35;;;;;;;6.00;3.35;;;;;;;;;;5018338;28;20021;-77
2022/06/25 03:25:00;;;;;;;4.80;3.17;;;;;;;;;;5014257;28;20472;-78
2022/06/25 03:27:26;;;;;;;3.65;3.33;;;;;;;;;;5014311;28;20096;-77
2022/06/25 03:30:01;;;;;;;3.45;3.17;;;;;;;;;;5015418;28;20033;-77
2022/06/25 03:32:26;;;;;;;3.25;2.95;;;;;;;;;;5013876;28;20018;-78
2022/06/25 03:35:21;;;;;;;3.72;3.30;;;;;;;;;;4979070;28;20035;-76
2022/06/25 03:38:02;;;;;;;3.40;3.10;;;;;;;;;;5030573;28;20464;-78
2022/06/25 03:40:28;;;;;;;4.65;3.35;;;;;;;;;;5013692;28;20030;-77
2022/06/25 03:42:53;;;;;;;9.90;3.30;;;;;;;;;;5013684;28;20022;-78
2022/06/25 03:45:20;;;;;;;4.93;3.38;;;;;;;;;;5013531;28;20036;-78
2022/06/25 03:47:50;;;;;;;4.43;3.60;;;;;;;;;;5013585;28;20067;-78
2022/06/25 03:50:17;;;;;;;4.25;3.55;;;;;;;;;;5013533;28;20022;-78
2022/06/25 03:52:43;;;;;;;3.72;3.33;;;;;;;;;;5013653;28;20476;-78
2022/06/25 03:55:09;;;;;;;4.03;3.72;;;;;;;;;;5013483;28;20037;-78
2022/06/25 03:57:34;;;;;;;4.10;3.10;;;;;;;;;;5029884;28;20124;-77
2022/06/25 04:00:16;;;;;;;4.05;3.13;;;;;;;;;;4999251;28;20403;-78
2022/06/25 04:02:54;;;;;;;4.57;3.33;;;;;;;;;;5015220;28;20375;-77
2022/06/25 04:05:29;;;;;;;3.17;2.92;;;;;;;;;;5014755;28;20092;-78
2022/06/25 04:08:04;;;;;;;4.18;3.47;;;;;;;;;;5014723;28;20030;-77
2022/06/25 04:10:32;;;;;;;3.35;3.15;;;;;;;;;;4997035;28;20488;-77
2022/06/25 04:12:57;;;;;;;2.95;2.80;;;;;;;;;;5014235;28;20028;-77
2022/06/25 04:15:23;;;;;;;3.67;3.13;;;;;;;;;;5013506;28;20042;-71
2022/06/25 04:17:48;;;;;;;6.00;3.60;;;;;;;;;;5013721;28;20022;-71
2022/06/25 04:20:14;;;;;;;3.40;3.10;;;;;;;;;;5013343;28;20435;-79
2022/06/25 04:22:39;;;;;;;3.00;2.80;;;;;;;;;;5012979;28;20025;-71
2022/06/25 04:25:05;;;;;;;6.13;2.85;;;;;;;;;;5012792;28;20049;-71
2022/06/25 04:30:15;;;;;;;3.40;3.08;;;;;;;;;;5013114;28;20037;-70
2022/06/25 04:32:45;;;;;;;2.53;2.40;;;;;;;;;;5013243;28;20109;-71
2022/06/25 04:35:19;;;;;;;3.10;2.90;;;;;;;;;;5015016;28;20286;-72
2022/06/25 04:37:47;;;;;;;3.20;3.00;;;;;;;;;;5013090;28;20021;-72
2022/06/25 04:40:15;;;;;;;3.75;2.85;;;;;;;;;;5012231;28;20014;-72
2022/06/25 04:42:44;;;;;;;3.10;2.70;;;;;;;;;;5011642;28;20086;-72
2022/06/25 04:45:10;;;;;;;2.80;2.53;;;;;;;;;;5012845;28;20104;-72
2022/06/25 04:47:44;;;;;;;3.00;2.80;;;;;;;;;;5011781;28;20372;-72
2022/06/25 04:50:32;;;;;;;2.95;2.75;;;;;;;;;;5013486;28;20034;-72
2022/06/25 04:52:58;;;;;;;3.83;2.80;;;;;;;;;;4995209;28;20365;-72
2022/06/25 04:55:23;;;;;;;3.10;2.50;;;;;;;;;;5012736;28;20050;-72
2022/06/25 04:57:49;;;;;;;13.70;3.55;;;;;;;;;;5011787;28;20475;-72
2022/06/25 05:00:43;;;;;;;3.65;2.85;;;;;;;;;;4999588;28;20476;-72
2022/06/25 05:03:09;;;;;;;2.85;2.65;;;;;;;;;;4995153;28;20030;-72
2022/06/25 05:05:40;;;;;;;7.32;3.03;;;;;;;;;;5011355;28;20036;-72
2022/06/25 05:08:10;;;;;;;5.32;4.00;;;;;;;;;;5011483;28;20041;-70
2022/06/25 05:10:36;;;;;;;3.28;2.90;;;;;;;;;;4995085;28;20124;-72
2022/06/25 05:13:14;;;;;;;3.22;3.05;;;;;;;;;;5012747;28;20030;-71
2022/06/25 05:15:42;;;;;;;;;;;;;;;;;;5012213;28;20038;-72
2022/06/25 05:18:09;;;;;;;4.38;3.17;;;;;;;;;;5011904;28;20278;-71
2022/06/25 05:20:38;;;;;;;3.22;3.00;;;;;;;;;;5011311;28;20041;-71
2022/06/25 05:23:04;;;;;;;3.30;3.10;;;;;;;;;;5011334;28;20030;-72
2022/06/25 05:25:30;;;;;;;8.77;3.20;;;;;;;;;;5011095;28;20045;-72
2022/06/25 05:27:55;;;;;;;3.55;3.25;;;;;;;;;;5011240;28;20066;-71
2022/06/25 05:30:21;;;;;;;3.95;2.67;;;;;;;;;;5011269;28;20476;-72
2022/06/25 05:32:46;;;;;;;6.10;3.08;;;;;;;;;;5011182;28;20076;-73
2022/06/25 05:35:14;;;;;;;8.45;3.20;;;;;;;;;;5027686;28;20025;-70
2022/06/25 05:37:40;;;;;;;6.07;3.22;;;;;;;;;;5011619;28;20034;-70
2022/06/25 05:40:06;;;;;;;6.03;3.50;;;;;;;;;;5012392;28;20471;-69
2022/06/25 05:42:31;;;;;;;4.28;3.13;;;;;;;;;;5011700;28;20029;-71
2022/06/25 05:44:57;;;;;;;3.55;3.10;;;;;;;;;;5016141;28;20014;-71
2022/06/25 05:47:22;;;;;;;3.35;3.08;;;;;;;;;;5015850;28;20069;-69
2022/06/25 05:49:47;;;;;;;4.05;3.00;;;;;;;;;;5016005;28;20085;-71
2022/06/25 05:52:14;;;;;;;3.83;2.90;;;;;;;;;;5015984;28;20034;-71
2022/06/25 05:54:39;;;;;;;21.13;4.38;;;;;;;;;;5015917;28;20018;-71
2022/06/25 05:57:07;;;;;;;3.00;2.80;;;;;;;;;;5014495;28;20052;-72
2022/06/25 05:59:32;;;;;;;3.30;3.10;;;;;;;;;;5015809;28;20361;-72
2022/06/25 06:01:58;;;;;;;6.10;3.10;;;;;;;;;;5014515;28;20052;-72
2022/06/25 06:04:23;;;;;;;5.25;3.13;;;;;;;;;;5015665;28;20029;-72
2022/06/25 06:06:49;;;;;;;6.68;3.08;;;;;;;;;;5015866;28;20030;-70
2022/06/25 06:09:14;;;;;;;3.00;2.80;;;;;;;;;;5016024;28;20018;-71
2022/06/25 06:11:40;;;;;;;5.13;2.90;;;;;;;;;;5014379;28;20037;-71
2022/06/25 06:14:06;;;;;;;4.40;3.10;;;;;;;;;;5015762;28;20021;-76
2022/06/25 06:16:31;;;;;;;3.17;2.65;;;;;;;;;;5014363;28;20041;-76
2022/06/25 06:18:57;;;;;;;3.67;3.10;;;;;;;;;;5015401;28;20022;-77
2022/06/25 06:21:22;;;;;;;5.13;3.13;;;;;;;;;;5014018;28;20129;-76
2022/06/25 06:23:48;;;;;;;3.17;2.92;;;;;;;;;;5016672;28;20113;-76
2022/06/25 06:26:13;;;;;;;4.03;2.70;;;;;;;;;;5035017;28;20403;-77
2022/06/25 06:28:38;;;;;;;3.10;2.80;;;;;;;;;;5035030;28;20055;-77
2022/06/25 06:31:04;;;;;;;3.10;2.90;;;;;;;;;;5034892;28;20048;-76
2022/06/25 06:33:29;;;;;;;2.92;2.72;;;;;;;;;;5034903;28;20009;-77
2022/06/25 06:35:55;;;;;;;4.05;2.92;;;;;;;;;;5034875;28;20033;-77
2022/06/25 06:38:20;;;;;;;3.30;3.03;;;;;;;;;;5034867;28;20487;-76
2022/06/25 06:40:45;;;;;;;3.00;2.80;;;;;;;;;;5034808;28;20053;-76
2022/06/25 06:43:11;;;;;;;3.33;3.03;;;;;;;;;;5034672;28;20460;-78
2022/06/25 06:45:36;;;;;;;3.10;2.78;;;;;;;;;;5034565;28;20490;-78
2022/06/25 06:48:02;;;;;;;3.42;3.15;;;;;;;;;;5034651;28;20021;-77
2022/06/25 06:50:27;;;;;;;4.28;2.90;;;;;;;;;;5034628;28;20048;-78
2022/06/25 06:52:53;;;;;;;2.65;2.42;;;;;;;;;;5034541;28;20020;-77
2022/06/25 06:55:18;;;;;;;2.80;2.60;;;;;;;;;;5033269;28;20057;-78
2022/06/25 06:57:43;;;;;;;3.35;2.67;;;;;;;;;;5034731;28;20041;-78
2022/06/25 07:00:09;;;;;;;4.65;2.70;;;;;;;;;;5034371;28;20460;-78
2022/06/25 07:02:34;;;;;;;3.35;2.42;;;;;;;;;;5016654;28;20075;-78
2022/06/25 07:05:00;;;;;;;3.03;2.40;;;;;;;;;;5016645;28;20032;-77
2022/06/25 07:07:25;;;;;;;2.13;2.03;;;;;;;;;;5034242;28;20022;-77
2022/06/25 07:09:51;;;;;;;3.58;3.28;;;;;;;;;;5016667;28;20388;-72
2022/06/25 07:12:16;;;;;;;2.95;2.38;;;;;;;;;;5034641;28;20017;-72
2022/06/25 07:14:42;;;;;;;2.55;2.40;;;;;;;;;;5034771;28;20037;-71
2022/06/25 07:17:07;;;;;;;2.55;2.30;;;;;;;;;;5035430;28;20025;-71
2022/06/25 07:19:32;;;;;;;3.03;2.83;;;;;;;;;;5035582;28;20479;-71
2022/06/25 07:21:58;;;;;;;2.70;2.50;;;;;;;;;;5035532;28;20519;-71
2022/06/25 07:24:24;;;;;;;5.38;1.90;;;;;;;;;;5013994;28;20041;-71
2022/06/25 07:26:50;;;;;;;2.08;1.98;;;;;;;;;;5013837;28;20125;-71
2022/06/25 07:29:15;;;;;;;4.20;2.15;;;;;;;;;;5014143;28;20120;-71
2022/06/25 07:31:41;;;;;;;2.38;2.17;;;;;;;;;;5015234;28;20034;-71
2022/06/25 07:34:06;;;;;;;3.90;3.05;;;;;;;;;;5015595;28;20018;-71
2022/06/25 07:36:33;;;;;;;2.33;2.22;;;;;;;;;;5015539;28;20081;-71
2022/06/25 07:38:58;;;;;;;4.20;2.35;;;;;;;;;;5015550;28;20029;-71
2022/06/25 07:41:23;;;;;;;2.47;2.25;;;;;;;;;;5015116;28;20026;-71
2022/06/25 07:43:49;;;;;;;3.45;2.20;;;;;;;;;;5015284;28;20029;-71
2022/06/25 07:46:14;;;;;;;2.55;1.90;;;;;;;;;;5015225;28;20359;-71
2022/06/25 07:48:40;;;;;;;2.30;2.10;;;;;;;;;;5015270;28;20068;-71
2022/06/25 07:53:49;;;;;;;2.92;2.25;;;;;;;;;;5014715;28;20033;-71
2022/06/25 07:56:15;;;;;;;5.05;2.35;;;;;;;;;;5014871;28;20025;-77
2022/06/25 07:58:41;;;;;;;2.72;2.20;;;;;;;;;;5014954;28;20468;-77
2022/06/25 08:01:07;;;;;;;2.47;2.22;;;;;;;;;;5015146;28;20105;-77
2022/06/25 08:03:32;;;;;;;2.83;2.28;;;;;;;;;;5013791;28;20030;-77
2022/06/25 08:05:58;;;;;;;2.25;2.05;;;;;;;;;;5013226;28;20022;-77
2022/06/25 08:08:24;;;;;;;2.08;1.90;;;;;;;;;;5014878;28;20030;-77
2022/06/25 08:10:51;;;;;;;3.22;2.40;;;;;;;;;;5013179;28;20466;-77
2022/06/25 08:13:17;;;;;;;2.50;2.30;;;;;;;;;;5014783;28;20030;-77
2022/06/25 08:15:42;;;;;;;2.20;2.10;;;;;;;;;;5014602;28;20022;-77
2022/06/25 08:18:08;;;;;;;1.98;1.83;;;;;;;;;;5013575;28;20026;-77
2022/06/25 08:20:33;;;;;;;3.00;2.15;;;;;;;;;;5014705;28;20022;-77
2022/06/25 08:22:58;;;;;;;2.97;2.67;;;;;;;;;;5014435;28;20376;-77
2022/06/25 08:25:24;;;;;;;5.43;2.33;;;;;;;;;;5028851;28;20046;-77
2022/06/25 08:27:50;;;;;;;2.00;1.90;;;;;;;;;;5033941;28;20029;-77
2022/06/25 08:30:19;;;;;;;2.05;1.70;;;;;;;;;;5034079;28;20371;-77
2022/06/25 08:32:46;;;;;;;1.75;1.65;;;;;;;;;;5032815;28;20383;-77
2022/06/25 08:35:11;;;;;;;2.20;2.10;;;;;;;;;;5032691;28;20092;-77
2022/06/25 08:37:44;;;;;;;2.33;2.22;;;;;;;;;;5032667;28;20328;-77
2022/06/25 08:40:09;;;;;;;2.22;2.03;;;;;;;;;;5032933;28;20024;-77
2022/06/25 08:42:35;;;;;;;2.63;2.30;;;;;;;;;;5032827;28;20096;-77
2022/06/25 08:45:02;;;;;;;2.08;1.90;;;;;;;;;;5033555;28;20490;-78
2022/06/25 08:47:27;;;;;;;2.10;1.70;;;;;;;;;;5033579;28;20034;-77
2022/06/25 08:49:53;;;;;;;3.63;1.85;;;;;;;;;;5016327;28;20026;-77
2022/06/25 08:52:19;;;;;;;7.28;1.67;;;;;;;;;;5033568;28;20014;-77
2022/06/25 08:54:46;;;;;;;2.80;2.15;;;;;;;;;;5016002;28;20065;-78
2022/06/25 08:57:11;;;;;;;1.85;1.75;;;;;;;;;;5015807;28;20399;-77
2022/06/25 08:59:38;;;;;;;1.83;1.73;;;;;;;;;;5033366;28;20021;-77
2022/06/25 09:02:03;;;;;;;2.22;2.13;;;;;;;;;;5033618;28;20026;-77
2022/06/25 09:04:29;;;;;;;1.80;1.70;;;;;;;;;;5033484;28;20032;-76
2022/06/25 09:07:13;;;;;;;2.10;2.00;;;;;;;;;;5033409;28;20151;-76
2022/06/25 09:09:39;;;;;;;2.10;2.00;;;;;;;;;;5033584;28;20472;-76
2022/06/25 09:12:08;;;;;;;1.70;1.60;;;;;;;;;;5033576;28;20029;-76
2022/06/25 09:17:06;;;;;;;3.70;2.25;;;;;;;;;;5047097;23;20069;-75
2022/06/25 09:19:39;;;;;;;2.03;1.90;;;;;;;;;;5037580;28;20044;-76
2022/06/25 09:22:05;;;;;;;5.35;2.00;;;;;;;;;;5037970;28;20025;-76
2022/06/25 09:24:40;;;;;;;2.00;1.90;;;;;;;;;;5037640;28;20096;-76
2022/06/25 09:27:11;;;;;;;2.25;1.80;;;;;;;;;;5037504;28;20036;-75
2022/06/25 09:29:42;;;;;;;4.85;1.60;;;;;;;;;;5037498;28;20025;-75
2022/06/25 09:32:09;;;;;;;1.55;1.40;;;;;;;;;;5037187;28;20045;-75
2022/06/25 09:34:35;;;;;;;2.78;1.63;;;;;;;;;;5037457;28;20028;-76
2022/06/25 09:37:17;;;;;;;1.98;1.88;;;;;;;;;;5037366;28;20040;-77
2022/06/25 09:39:43;;;;;;;2.10;1.90;;;;;;;;;;5035979;28;20022;-77
2022/06/25 09:42:18;;;;;;;1.70;1.60;;;;;;;;;;5035975;28;20021;-76
2022/06/25 09:44:44;;;;;;;3.20;2.00;;;;;;;;;;5035857;28;20030;-76
2022/06/25 09:47:10;;;;;;;2.00;1.90;;;;;;;;;;5036014;28;20040;-75
2022/06/25 09:50:12;;;;;;;1.80;1.52;;;;;;;;;;5036505;28;20464;-75
2022/06/25 09:52:38;;;;;;;2.95;1.85;;;;;;;;;;4974529;28;20027;-76
2022/06/25 09:55:04;;;;;;;2.30;1.92;;;;;;;;;;5023413;28;20060;-75
2022/06/25 09:57:31;;;;;;;3.28;1.90;;;;;;;;;;5034436;28;20025;-75
2022/06/25 09:59:58;;;;;;;1.80;1.63;;;;;;;;;;5035683;28;20045;-75
2022/06/25 10:02:25;;;;;;;2.95;1.80;;;;;;;;;;5034428;28;20041;-75
2022/06/25 10:04:52;;;;;;;2.08;1.98;;;;;;;;;;5035493;28;20414;-75
2022/06/25 10:07:19;;;;;;;1.85;1.75;;;;;;;;;;5035381;28;20175;-75
2022/06/25 10:09:45;;;;;;;1.88;1.77;;;;;;;;;;5035442;28;20017;-75
2022/06/25 10:12:12;;;;;;;1.98;1.65;;;;;;;;;;5034478;28;20025;-75
2022/06/25 10:14:38;;;;;;;1.70;1.60;;;;;;;;;;5035381;28;20021;-76
2022/06/25 10:17:04;;;;;;;1.95;1.50;;;;;;;;;;5035125;28;20439;-77
2022/06/25 10:19:31;;;;;;;1.80;1.70;;;;;;;;;;5035315;28;20029;-76
2022/06/25 10:21:58;;;;;;;1.60;1.50;;;;;;;;;;5035137;28;20033;-76
2022/06/25 10:24:23;;;;;;;1.90;1.80;;;;;;;;;;5035153;28;20430;-77
2022/06/25 10:26:50;;;;;;;1.83;1.73;;;;;;;;;;5035558;28;20037;-76
2022/06/25 10:29:28;;;;;;;1.85;1.75;;;;;;;;;;5034733;28;20535;-76
2022/06/25 10:32:12;;;;;;;1.90;1.80;;;;;;;;;;5035224;28;20108;-76
2022/06/25 10:34:38;;;;;;;2.00;1.85;;;;;;;;;;5033635;28;20026;-76
2022/06/25 10:37:03;;;;;;;1.85;1.75;;;;;;;;;;5033573;28;20083;-77
2022/06/25 10:39:31;;;;;;;1.88;1.70;;;;;;;;;;5034960;28;20038;-76
2022/06/25 10:45:06;;;;;;;1.83;1.73;;;;;;;;;;5034783;28;20025;-77
2022/06/25 10:47:39;;;;;;;1.95;1.60;;;;;;;;;;5050358;28;20419;-77
2022/06/25 10:50:27;;;;;;;2.08;1.98;;;;;;;;;;5034635;28;20029;-77
2022/06/25 10:53:02;;;;;;;1.90;1.80;;;;;;;;;;5025280;28;20497;-76
2022/06/25 10:55:48;;;;;;;2.33;2.15;;;;;;;;;;5034735;28;20059;-76
2022/06/25 10:58:24;;;;;;;2.10;1.90;;;;;;;;;;5023952;28;20045;-76
2022/06/25 11:00:49;;;;;;;3.40;1.80;;;;;;;;;;5034552;28;20486;-76
2022/06/25 11:03:15;;;;;;;4.05;1.70;;;;;;;;;;5049796;28;20022;-76
2022/06/25 11:05:42;;;;;;;2.22;1.70;;;;;;;;;;5034288;28;20029;-76
2022/06/25 11:08:07;;;;;;;1.83;1.73;;;;;;;;;;5034370;28;20068;-77
2022/06/25 11:10:34;;;;;;;2.35;1.75;;;;;;;;;;5034256;28;20030;-76
2022/06/25 11:12:59;;;;;;;1.95;1.85;;;;;;;;;;5032994;28;20018;-77
2022/06/25 11:15:38;;;;;;;3.17;1.63;;;;;;;;;;5034087;28;20111;-77
2022/06/25 11:18:08;;;;;;;2.10;2.00;;;;;;;;;;5035523;28;20100;-77
2022/06/25 11:20:33;;;;;;;1.90;1.80;;;;;;;;;;5035462;28;20044;-76
2022/06/25 11:22:59;;;;;;;1.67;1.58;;;;;;;;;;5032724;28;20476;-76
2022/06/25 11:30:52;;;;;;;2.13;1.80;;;;;;;;;;5033876;28;20360;-77
2022/06/25 11:33:18;;;;;;;1.73;1.63;;;;;;;;;;5033956;28;20028;-77
2022/06/25 11:35:44;;;;;;;2.30;2.10;;;;;;;;;;5033750;28;20087;-76
2022/06/25 11:38:21;;;;;;;1.60;1.50;;;;;;;;;;5032583;28;20026;-76
2022/06/25 11:40:46;;;;;;;3.05;1.70;;;;;;;;;;5033204;28;20026;-77
2022/06/25 11:43:15;;;;;;;2.03;1.83;;;;;;;;;;5033762;28;20021;-77
2022/06/25 11:45:50;;;;;;;1.77;1.67;;;;;;;;;;5033616;28;20033;-76
2022/06/25 11:48:16;;;;;;;2.10;1.80;;;;;;;;;;5033603;28;20022;-77
2022/06/25 11:50:42;;;;;;;1.98;1.60;;;;;;;;;;5034501;28;20033;-77
2022/06/25 11:53:07;;;;;;;1.55;1.55;;;;;;;;;;5034928;28;20029;-76
2022/06/25 11:55:33;;;;;;;2.10;1.60;;;;;;;;;;5034821;28;20215;-76
2022/06/25 11:57:58;;;;;;;4.60;1.60;;;;;;;;;;5033222;28;20375;-76
2022/06/25 12:00:24;;;;;;;2.60;1.52;;;;;;;;;;5050393;28;20041;-76
2022/06/25 12:03:00;;;;;;;1.60;1.50;;;;;;;;;;5034392;28;20456;-76
2022/06/25 12:05:25;;;;;;;1.35;1.35;;;;;;;;;;5033379;28;20025;-76
2022/06/25 12:07:51;;;;;;;1.60;1.50;;;;;;;;;;5034318;28;20451;-76
2022/06/25 12:10:16;;;;;;;1.50;1.40;;;;;;;;;;5034281;28;20033;-76
2022/06/25 12:12:42;;;;;;;2.15;1.73;;;;;;;;;;5034278;28;20092;-77
2022/06/25 12:15:10;;;;;;;1.88;1.65;;;;;;;;;;5034489;28;20026;-77
2022/06/25 12:17:36;;;;;;;1.55;1.45;;;;;;;;;;5033524;28;20064;-76
2022/06/25 12:20:06;;;;;;;2.45;1.70;;;;;;;;;;5033225;28;20036;-76
2022/06/25 12:22:31;;;;;;;1.67;1.58;;;;;;;;;;5033478;28;20030;-78
2022/06/25 12:24:58;;;;;;;2.30;1.60;;;;;;;;;;5034296;28;20414;-79
2022/06/25 12:27:24;;;;;;;1.70;1.60;;;;;;;;;;5032656;28;20079;-76
2022/06/25 12:29:52;;;;;;;11.05;2.20;;;;;;;;;;5033951;28;20014;-77
2022/06/25 12:32:17;;;;;;;2.17;1.80;;;;;;;;;;5033906;28;20052;-76
2022/06/25 12:34:47;;;;;;;1.85;1.60;;;;;;;;;;5032642;28;20459;-77
2022/06/25 12:37:27;;;;;;;2.03;1.77;;;;;;;;;;5034096;28;20029;-76
2022/06/25 12:39:52;;;;;;;2.05;1.80;;;;;;;;;;5034106;28;20474;-75
2022/06/25 12:42:18;;;;;;;1.80;1.70;;;;;;;;;;5033805;28;20021;-76
2022/06/25 12:44:44;;;;;;;1.70;1.60;;;;;;;;;;5033759;28;20030;-72
2022/06/25 12:47:16;;;;;;;4.03;2.03;;;;;;;;;;5032425;28;20017;-72
2022/06/25 12:49:43;;;;;;;2.47;1.65;;;;;;;;;;5033117;28;20044;-72
2022/06/25 12:52:08;;;;;;;2.13;1.70;;;;;;;;;;5033661;28;20044;-72
2022/06/25 12:54:48;;;;;;;2.03;1.80;;;;;;;;;;5044731;23;20049;-76
2022/06/25 12:57:30;;;;;;;2.30;2.10;;;;;;;;;;5034193;28;20033;-76
2022/06/25 12:59:58;;;;;;;2.20;1.95;;;;;;;;;;5015878;28;20264;-76
2022/06/25 13:02:23;;;;;;;2.10;2.00;;;;;;;;;;5033566;28;20067;-76
2022/06/25 13:04:49;;;;;;;2.30;2.10;;;;;;;;;;5033886;28;20120;-77
2022/06/25 13:07:15;;;;;;;2.50;1.80;;;;;;;;;;5016095;28;20033;-76
2022/06/25 13:09:41;;;;;;;1.77;1.67;;;;;;;;;;5015861;28;20411;-76
2022/06/25 13:12:07;;;;;;;3.40;1.92;;;;;;;;;;5033736;28;20018;-76
2022/06/25 13:14:32;;;;;;;2.33;2.13;;;;;;;;;;5033518;28;20117;-76
2022/06/25 13:16:58;;;;;;;2.00;1.90;;;;;;;;;;5033742;28;20372;-76
2022/06/25 13:19:24;;;;;;;3.20;1.98;;;;;;;;;;5033666;28;20022;-76
2022/06/25 13:21:50;;;;;;;3.35;2.00;;;;;;;;;;5033393;28;20022;-76
2022/06/25 13:24:15;;;;;;;4.50;2.15;;;;;;;;;;5032786;28;20045;-76
2022/06/25 13:29:14;;;;;;;3.42;1.85;;;;;;;;;;5031713;28;20053;-72
2022/06/25 13:31:39;;;;;;;1.90;1.73;;;;;;;;;;5033098;28;20044;-72
2022/06/25 13:34:05;;;;;;;1.83;1.73;;;;;;;;;;5031990;28;20037;-72
2022/06/25 13:36:31;;;;;;;2.00;1.90;;;;;;;;;;5033196;28;20032;-72
2022/06/25 13:38:56;;;;;;;3.05;1.90;;;;;;;;;;5016301;28;20040;-72
2022/06/25 13:41:22;;;;;;;3.78;2.80;;;;;;;;;;5033283;28;20021;-72
2022/06/25 13:43:54;;;;;;;3.13;2.92;;;;;;;;;;5015469;28;20029;-72
2022/06/25 13:46:22;;;;;;;10.82;9.40;;;;;;;;;;5033209;28;20033;-72
2022/06/25 13:48:48;;;;;;;3.00;2.03;;;;;;;;;;5015406;28;20021;-72
2022/06/25 13:51:14;;;;;;;2.22;2.13;;;;;;;;;;5033898;28;20148;-72
2022/06/25 13:53:39;;;;;;;2.80;2.50;;;;;;;;;;5015362;28;20475;-71
2022/06/25 13:56:06;;;;;;;2.63;2.10;;;;;;;;;;5033030;28;20040;-72
2022/06/25 13:58:31;;;;;;;5.47;2.20;;;;;;;;;;5033122;28;20080;-72
2022/06/25 14:00:57;;;;;;;2.60;2.40;;;;;;;;;;5033406;28;20029;-72
2022/06/25 14:03:23;;;;;;;2.40;2.30;;;;;;;;;;5015637;28;20044;-72
2022/06/25 14:05:48;;;;;;;4.22;3.92;;;;;;;;;;5036792;28;20065;-72
2022/06/25 14:08:13;;;;;;;3.17;2.58;;;;;;;;;;5018871;28;20475;-72
2022/06/25 14:10:39;;;;;;;2.83;2.45;;;;;;;;;;5036730;28;20034;-72
2022/06/25 14:13:04;;;;;;;2.35;2.05;;;;;;;;;;5036300;28;20017;-72
2022/06/25 14:15:41;;;;;;;2.03;1.92;;;;;;;;;;5019438;28;20108;-72
2022/06/25 14:18:06;;;;;;;13.25;8.20;;;;;;;;;;5036477;28;20037;-72
2022/06/25 14:20:32;;;;;;;26.70;12.48;;;;;;;;;;5036867;28;20026;-72
2022/06/25 14:22:58;;;;;;;8.25;5.57;;;;;;;;;;5036234;28;20021;-72
2022/06/25 14:25:24;;;;;;;7.35;3.75;;;;;;;;;;5036326;28;20022;-72
2022/06/25 14:27:51;;;;;;;3.92;2.10;;;;;;;;;;5018304;28;20120;-72
2022/06/25 14:30:16;;;;;;;3.03;2.10;;;;;;;;;;5036377;28;20060;-72
2022/06/25 14:32:42;;;;;;;2.40;2.30;;;;;;;;;;5036339;28;20033;-72
2022/06/25 14:35:07;;;;;;;2.72;2.53;;;;;;;;;;5036207;28;20021;-72
2022/06/25 14:43:01;;;;;;;3.28;2.97;;;;;;;;;;5035888;28;20525;-70
2022/06/25 14:45:27;;;;;;;4.85;2.85;;;;;;;;;;5035825;28;20112;-71
2022/06/25 14:47:52;;;;;;;3.83;3.53;;;;;;;;;;5035882;28;20030;-71
2022/06/25 14:50:18;;;;;;;4.50;3.97;;;;;;;;;;5036331;28;20039;-71
2022/06/25 14:52:43;;;;;;;3.90;2.10;;;;;;;;;;5040092;28;20025;-71
2022/06/25 14:55:09;;;;;;;2.65;2.00;;;;;;;;;;5044343;28;20020;-71
2022/06/25 14:57:35;;;;;;;2.95;2.75;;;;;;;;;;5046130;28;20425;-75
2022/06/25 15:00:00;;;;;;;2.45;2.10;;;;;;;;;;5044800;28;20435;-75
2022/06/25 15:02:26;;;;;;;2.33;2.08;;;;;;;;;;5046883;28;20087;-75
2022/06/25 15:04:51;;;;;;;3.10;2.90;;;;;;;;;;5038592;28;20033;-75
2022/06/25 15:07:18;;;;;;;3.33;2.33;;;;;;;;;;5018167;28;20091;-75
2022/06/25 15:09:43;;;;;;;1.98;1.88;;;;;;;;;;5017677;28;20018;-75
2022/06/25 15:12:08;;;;;;;2.60;2.38;;;;;;;;;;5018313;28;20083;-76
2022/06/25 15:14:34;;;;;;;3.97;2.60;;;;;;;;;;5035260;28;20017;-75
2022/06/25 15:20:01;;;;;;;2.60;2.40;;;;;;;;;;4955848;29;20074;-71